sensor_id;sensor_type;location;lat;lon;timestamp;P1;durP1;ratioP1;P2;durP2;ratioP2
11490;SDS011;5802;52.832;4.758;2023-03-13T00:02:25;6.55;;;2.40;;
11490;SDS011;5802;52.832;4.758;2023-03-13T00:04:52;7.32;;;2.28;;
11490;SDS011;5802;52.832;4.758;2023-03-13T00:07:18;6.25;;;2.28;;
11490;SDS011;5802;52.832;4.758;2023-03-13T00:09:45;4.80;;;2.00;;
11490;SDS011;5802;52.832;4.758;2023-03-13T00:12:12;4.55;;;1.95;;
11490;SDS011;5802;52.832;4.758;2023-03-13T00:14:38;4.22;;;2.00;;
11490;SDS011;5802;52.832;4.758;2023-03-13T00:17:05;4.40;;;2.08;;
11490;SDS011;5802;52.832;4.758;2023-03-13T00:19:33;6.38;;;2.00;;
11490;SDS011;5802;52.832;4.758;2023-03-13T00:22:00;5.35;;;2.00;;
11490;SDS011;5802;52.832;4.758;2023-03-13T00:24:26;5.28;;;2.13;;
11490;SDS011;5802;52.832;4.758;2023-03-13T00:26:54;5.50;;;2.33;;
11490;SDS011;5802;52.832;4.758;2023-03-13T00:29:20;2.90;;;1.70;;
11490;SDS011;5802;52.832;4.758;2023-03-13T00:31:47;5.35;;;1.98;;
11490;SDS011;5802;52.832;4.758;2023-03-13T00:34:14;4.68;;;2.00;;
11490;SDS011;5802;52.832;4.758;2023-03-13T00:36:42;3.97;;;1.88;;
11490;SDS011;5802;52.832;4.758;2023-03-13T00:39:09;4.25;;;1.80;;
11490;SDS011;5802;52.832;4.758;2023-03-13T00:41:36;6.55;;;2.45;;
11490;SDS011;5802;52.832;4.758;2023-03-13T00:44:03;6.68;;;2.10;;
11490;SDS011;5802;52.832;4.758;2023-03-13T00:46:29;4.25;;;1.85;;
11490;SDS011;5802;52.832;4.758;2023-03-13T00:48:56;6.93;;;2.38;;
11490;SDS011;5802;52.832;4.758;2023-03-13T00:51:23;6.60;;;1.92;;
11490;SDS011;5802;52.832;4.758;2023-03-13T00:53:52;5.90;;;1.95;;
11490;SDS011;5802;52.832;4.758;2023-03-13T00:56:19;6.40;;;2.10;;
11490;SDS011;5802;52.832;4.758;2023-03-13T00:58:47;6.68;;;1.88;;
11490;SDS011;5802;52.832;4.758;2023-03-13T01:01:15;6.57;;;2.25;;
11490;SDS011;5802;52.832;4.758;2023-03-13T01:03:44;5.93;;;1.90;;
11490;SDS011;5802;52.832;4.758;2023-03-13T01:06:13;11.43;;;2.00;;
11490;SDS011;5802;52.832;4.758;2023-03-13T01:08:41;6.45;;;2.28;;
11490;SDS011;5802;52.832;4.758;2023-03-13T01:11:10;3.75;;;1.60;;
11490;SDS011;5802;52.832;4.758;2023-03-13T01:13:38;3.80;;;1.80;;
11490;SDS011;5802;52.832;4.758;2023-03-13T01:16:06;5.68;;;1.50;;
11490;SDS011;5802;52.832;4.758;2023-03-13T01:18:35;6.07;;;1.90;;
11490;SDS011;5802;52.832;4.758;2023-03-13T01:21:03;3.85;;;1.85;;
11490;SDS011;5802;52.832;4.758;2023-03-13T01:23:31;3.92;;;1.80;;
11490;SDS011;5802;52.832;4.758;2023-03-13T01:25:58;2.42;;;1.40;;
11490;SDS011;5802;52.832;4.758;2023-03-13T01:28:26;5.43;;;1.83;;
11490;SDS011;5802;52.832;4.758;2023-03-13T01:30:53;3.45;;;1.80;;
11490;SDS011;5802;52.832;4.758;2023-03-13T01:33:20;3.88;;;1.73;;
11490;SDS011;5802;52.832;4.758;2023-03-13T01:35:46;3.58;;;1.83;;
11490;SDS011;5802;52.832;4.758;2023-03-13T01:38:13;3.45;;;1.70;;
11490;SDS011;5802;52.832;4.758;2023-03-13T01:40:40;4.03;;;1.60;;
11490;SDS011;5802;52.832;4.758;2023-03-13T01:43:14;3.08;;;1.45;;
11490;SDS011;5802;52.832;4.758;2023-03-13T01:45:55;4.60;;;1.67;;
11490;SDS011;5802;52.832;4.758;2023-03-13T01:48:29;3.05;;;1.70;;
11490;SDS011;5802;52.832;4.758;2023-03-13T01:51:02;5.05;;;1.23;;
11490;SDS011;5802;52.832;4.758;2023-03-13T01:53:32;3.05;;;1.52;;
11490;SDS011;5802;52.832;4.758;2023-03-13T01:56:01;4.28;;;1.67;;
11490;SDS011;5802;52.832;4.758;2023-03-13T01:58:32;2.75;;;1.40;;
11490;SDS011;5802;52.832;4.758;2023-03-13T02:01:02;3.92;;;1.60;;
11490;SDS011;5802;52.832;4.758;2023-03-13T02:03:30;5.43;;;1.80;;
11490;SDS011;5802;52.832;4.758;2023-03-13T02:05:57;3.95;;;1.50;;
11490;SDS011;5802;52.832;4.758;2023-03-13T02:08:26;2.33;;;1.33;;
11490;SDS011;5802;52.832;4.758;2023-03-13T02:11:00;2.97;;;1.52;;
11490;SDS011;5802;52.832;4.758;2023-03-13T02:13:34;3.53;;;1.25;;
11490;SDS011;5802;52.832;4.758;2023-03-13T02:16:02;3.97;;;1.52;;
11490;SDS011;5802;52.832;4.758;2023-03-13T02:18:29;2.28;;;1.30;;
11490;SDS011;5802;52.832;4.758;2023-03-13T02:20:58;3.42;;;1.42;;
11490;SDS011;5802;52.832;4.758;2023-03-13T02:23:33;2.95;;;1.55;;
11490;SDS011;5802;52.832;4.758;2023-03-13T02:26:08;2.05;;;1.27;;
11490;SDS011;5802;52.832;4.758;2023-03-13T02:28:35;3.67;;;1.85;;
11490;SDS011;5802;52.832;4.758;2023-03-13T02:31:03;4.40;;;1.55;;
11490;SDS011;5802;52.832;4.758;2023-03-13T02:33:31;3.78;;;1.40;;
11490;SDS011;5802;52.832;4.758;2023-03-13T02:36:02;3.83;;;1.50;;
11490;SDS011;5802;52.832;4.758;2023-03-13T02:38:32;4.03;;;1.40;;
11490;SDS011;5802;52.832;4.758;2023-03-13T02:41:01;2.67;;;1.33;;
11490;SDS011;5802;52.832;4.758;2023-03-13T02:43:32;4.22;;;1.27;;
11490;SDS011;5802;52.832;4.758;2023-03-13T02:46:04;2.17;;;1.40;;
11490;SDS011;5802;52.832;4.758;2023-03-13T02:48:34;2.03;;;1.42;;
11490;SDS011;5802;52.832;4.758;2023-03-13T02:51:02;3.03;;;1.40;;
11490;SDS011;5802;52.832;4.758;2023-03-13T02:53:33;3.83;;;1.60;;
11490;SDS011;5802;52.832;4.758;2023-03-13T02:56:01;1.80;;;1.10;;
11490;SDS011;5802;52.832;4.758;2023-03-13T02:58:35;2.80;;;1.42;;
11490;SDS011;5802;52.832;4.758;2023-03-13T03:01:05;2.85;;;1.30;;
11490;SDS011;5802;52.832;4.758;2023-03-13T03:03:32;1.42;;;0.93;;
11490;SDS011;5802;52.832;4.758;2023-03-13T03:05:58;3.15;;;1.40;;
11490;SDS011;5802;52.832;4.758;2023-03-13T03:08:25;3.67;;;1.30;;
11490;SDS011;5802;52.832;4.758;2023-03-13T03:10:52;3.00;;;1.50;;
11490;SDS011;5802;52.832;4.758;2023-03-13T03:13:18;3.75;;;1.42;;
11490;SDS011;5802;52.832;4.758;2023-03-13T03:15:46;4.43;;;1.50;;
11490;SDS011;5802;52.832;4.758;2023-03-13T03:18:13;3.67;;;1.60;;
11490;SDS011;5802;52.832;4.758;2023-03-13T03:20:40;3.80;;;1.52;;
11490;SDS011;5802;52.832;4.758;2023-03-13T03:23:06;2.22;;;1.30;;
11490;SDS011;5802;52.832;4.758;2023-03-13T03:25:33;3.20;;;1.42;;
11490;SDS011;5802;52.832;4.758;2023-03-13T03:28:00;3.15;;;1.45;;
11490;SDS011;5802;52.832;4.758;2023-03-13T03:30:27;3.80;;;1.60;;
11490;SDS011;5802;52.832;4.758;2023-03-13T03:32:55;3.28;;;1.45;;
11490;SDS011;5802;52.832;4.758;2023-03-13T03:35:21;4.15;;;1.40;;
11490;SDS011;5802;52.832;4.758;2023-03-13T03:37:48;3.17;;;1.60;;
11490;SDS011;5802;52.832;4.758;2023-03-13T03:40:14;3.92;;;1.95;;
11490;SDS011;5802;52.832;4.758;2023-03-13T03:42:41;3.45;;;1.70;;
11490;SDS011;5802;52.832;4.758;2023-03-13T03:45:08;4.10;;;1.70;;
11490;SDS011;5802;52.832;4.758;2023-03-13T03:47:35;5.55;;;1.90;;
11490;SDS011;5802;52.832;4.758;2023-03-13T03:50:04;4.10;;;1.50;;
11490;SDS011;5802;52.832;4.758;2023-03-13T03:52:31;3.55;;;1.65;;
11490;SDS011;5802;52.832;4.758;2023-03-13T03:54:58;5.30;;;2.28;;
11490;SDS011;5802;52.832;4.758;2023-03-13T03:57:25;4.70;;;1.83;;
11490;SDS011;5802;52.832;4.758;2023-03-13T03:59:51;4.85;;;1.83;;
11490;SDS011;5802;52.832;4.758;2023-03-13T04:02:18;3.30;;;1.73;;
11490;SDS011;5802;52.832;4.758;2023-03-13T04:04:45;6.57;;;1.98;;
11490;SDS011;5802;52.832;4.758;2023-03-13T04:07:13;5.10;;;2.10;;
11490;SDS011;5802;52.832;4.758;2023-03-13T04:09:39;4.90;;;1.80;;
11490;SDS011;5802;52.832;4.758;2023-03-13T04:12:06;3.25;;;1.60;;
11490;SDS011;5802;52.832;4.758;2023-03-13T04:14:33;4.03;;;1.98;;
11490;SDS011;5802;52.832;4.758;2023-03-13T04:17:00;4.85;;;1.77;;
11490;SDS011;5802;52.832;4.758;2023-03-13T04:19:27;4.20;;;1.90;;
11490;SDS011;5802;52.832;4.758;2023-03-13T04:21:53;6.15;;;2.22;;
11490;SDS011;5802;52.832;4.758;2023-03-13T04:24:21;5.35;;;1.77;;
11490;SDS011;5802;52.832;4.758;2023-03-13T04:26:48;4.57;;;1.90;;
11490;SDS011;5802;52.832;4.758;2023-03-13T04:29:15;4.60;;;1.85;;
11490;SDS011;5802;52.832;4.758;2023-03-13T04:31:41;4.82;;;2.00;;
11490;SDS011;5802;52.832;4.758;2023-03-13T04:34:08;4.15;;;1.75;;
11490;SDS011;5802;52.832;4.758;2023-03-13T04:36:35;3.40;;;1.80;;
11490;SDS011;5802;52.832;4.758;2023-03-13T04:39:01;5.72;;;2.00;;
11490;SDS011;5802;52.832;4.758;2023-03-13T04:41:30;3.92;;;1.90;;
11490;SDS011;5802;52.832;4.758;2023-03-13T04:43:57;3.67;;;1.88;;
11490;SDS011;5802;52.832;4.758;2023-03-13T04:46:23;4.70;;;2.20;;
11490;SDS011;5802;52.832;4.758;2023-03-13T04:48:50;5.07;;;2.10;;
11490;SDS011;5802;52.832;4.758;2023-03-13T04:51:17;3.85;;;1.98;;
11490;SDS011;5802;52.832;4.758;2023-03-13T04:53:43;3.33;;;1.90;;
11490;SDS011;5802;52.832;4.758;2023-03-13T04:56:10;5.47;;;1.92;;
11490;SDS011;5802;52.832;4.758;2023-03-13T04:58:43;4.57;;;1.85;;
11490;SDS011;5802;52.832;4.758;2023-03-13T05:01:09;8.48;;;2.13;;
11490;SDS011;5802;52.832;4.758;2023-03-13T05:03:36;4.65;;;2.10;;
11490;SDS011;5802;52.832;4.758;2023-03-13T05:06:03;4.32;;;1.85;;
11490;SDS011;5802;52.832;4.758;2023-03-13T05:08:30;5.50;;;2.10;;
11490;SDS011;5802;52.832;4.758;2023-03-13T05:10:56;4.65;;;2.00;;
11490;SDS011;5802;52.832;4.758;2023-03-13T05:13:23;5.75;;;2.33;;
11490;SDS011;5802;52.832;4.758;2023-03-13T05:15:51;4.97;;;1.90;;
11490;SDS011;5802;52.832;4.758;2023-03-13T05:18:18;7.70;;;2.28;;
11490;SDS011;5802;52.832;4.758;2023-03-13T05:20:44;3.53;;;2.17;;
11490;SDS011;5802;52.832;4.758;2023-03-13T05:23:11;5.13;;;2.25;;
11490;SDS011;5802;52.832;4.758;2023-03-13T05:25:38;4.40;;;2.30;;
11490;SDS011;5802;52.832;4.758;2023-03-13T05:28:04;4.10;;;2.20;;
11490;SDS011;5802;52.832;4.758;2023-03-13T05:30:31;8.15;;;2.20;;
11490;SDS011;5802;52.832;4.758;2023-03-13T05:32:59;7.22;;;2.35;;
11490;SDS011;5802;52.832;4.758;2023-03-13T05:35:26;4.57;;;1.88;;
11490;SDS011;5802;52.832;4.758;2023-03-13T05:37:53;6.43;;;2.20;;
11490;SDS011;5802;52.832;4.758;2023-03-13T05:40:20;5.88;;;2.42;;
11490;SDS011;5802;52.832;4.758;2023-03-13T05:42:46;5.47;;;2.42;;
11490;SDS011;5802;52.832;4.758;2023-03-13T05:45:13;4.03;;;1.90;;
11490;SDS011;5802;52.832;4.758;2023-03-13T05:47:40;6.50;;;2.28;;
11490;SDS011;5802;52.832;4.758;2023-03-13T05:50:08;5.82;;;2.42;;
11490;SDS011;5802;52.832;4.758;2023-03-13T05:52:36;5.35;;;2.40;;
11490;SDS011;5802;52.832;4.758;2023-03-13T05:55:02;6.82;;;2.60;;
11490;SDS011;5802;52.832;4.758;2023-03-13T05:57:31;5.05;;;2.33;;
11490;SDS011;5802;52.832;4.758;2023-03-13T05:59:57;6.05;;;2.30;;
11490;SDS011;5802;52.832;4.758;2023-03-13T06:02:24;5.05;;;2.25;;
11490;SDS011;5802;52.832;4.758;2023-03-13T06:04:51;6.22;;;2.35;;
11490;SDS011;5802;52.832;4.758;2023-03-13T06:07:19;5.53;;;1.98;;
11490;SDS011;5802;52.832;4.758;2023-03-13T06:09:46;5.15;;;2.55;;
11490;SDS011;5802;52.832;4.758;2023-03-13T06:12:13;4.32;;;1.70;;
11490;SDS011;5802;52.832;4.758;2023-03-13T06:14:39;4.05;;;2.05;;
11490;SDS011;5802;52.832;4.758;2023-03-13T06:17:06;5.13;;;2.28;;
11490;SDS011;5802;52.832;4.758;2023-03-13T06:19:33;5.68;;;2.40;;
11490;SDS011;5802;52.832;4.758;2023-03-13T06:21:59;7.32;;;2.40;;
11490;SDS011;5802;52.832;4.758;2023-03-13T06:24:27;6.43;;;2.40;;
11490;SDS011;5802;52.832;4.758;2023-03-13T06:26:54;8.77;;;2.30;;
11490;SDS011;5802;52.832;4.758;2023-03-13T06:29:20;6.05;;;2.50;;
11490;SDS011;5802;52.832;4.758;2023-03-13T06:31:48;7.15;;;2.40;;
11490;SDS011;5802;52.832;4.758;2023-03-13T06:34:16;6.90;;;2.72;;
11490;SDS011;5802;52.832;4.758;2023-03-13T06:36:42;5.30;;;2.15;;
11490;SDS011;5802;52.832;4.758;2023-03-13T06:39:09;6.88;;;2.55;;
11490;SDS011;5802;52.832;4.758;2023-03-13T06:41:38;7.07;;;2.60;;
11490;SDS011;5802;52.832;4.758;2023-03-13T06:44:05;9.25;;;2.78;;
11490;SDS011;5802;52.832;4.758;2023-03-13T06:46:31;6.93;;;2.65;;
11490;SDS011;5802;52.832;4.758;2023-03-13T06:48:58;4.88;;;2.45;;
11490;SDS011;5802;52.832;4.758;2023-03-13T06:51:28;5.97;;;2.33;;
11490;SDS011;5802;52.832;4.758;2023-03-13T06:53:55;7.05;;;2.22;;
11490;SDS011;5802;52.832;4.758;2023-03-13T06:56:22;6.82;;;2.45;;
11490;SDS011;5802;52.832;4.758;2023-03-13T06:58:50;7.53;;;2.72;;
11490;SDS011;5802;52.832;4.758;2023-03-13T07:01:17;8.50;;;2.72;;
11490;SDS011;5802;52.832;4.758;2023-03-13T07:03:44;7.53;;;2.90;;
11490;SDS011;5802;52.832;4.758;2023-03-13T07:06:12;8.27;;;2.83;;
11490;SDS011;5802;52.832;4.758;2023-03-13T07:08:40;9.38;;;2.65;;
11490;SDS011;5802;52.832;4.758;2023-03-13T07:11:08;7.30;;;2.50;;
11490;SDS011;5802;52.832;4.758;2023-03-13T07:13:36;5.68;;;2.25;;
11490;SDS011;5802;52.832;4.758;2023-03-13T07:16:04;8.10;;;2.85;;
11490;SDS011;5802;52.832;4.758;2023-03-13T07:18:32;5.32;;;2.45;;
11490;SDS011;5802;52.832;4.758;2023-03-13T07:21:00;8.40;;;2.90;;
11490;SDS011;5802;52.832;4.758;2023-03-13T07:23:29;6.93;;;2.58;;
11490;SDS011;5802;52.832;4.758;2023-03-13T07:25:57;9.57;;;2.75;;
11490;SDS011;5802;52.832;4.758;2023-03-13T07:28:25;5.82;;;2.70;;
11490;SDS011;5802;52.832;4.758;2023-03-13T07:30:53;10.73;;;2.88;;
11490;SDS011;5802;52.832;4.758;2023-03-13T07:33:21;5.75;;;2.80;;
11490;SDS011;5802;52.832;4.758;2023-03-13T07:35:48;5.25;;;2.65;;
11490;SDS011;5802;52.832;4.758;2023-03-13T07:38:16;6.72;;;2.40;;
11490;SDS011;5802;52.832;4.758;2023-03-13T07:40:46;7.13;;;2.60;;
11490;SDS011;5802;52.832;4.758;2023-03-13T07:43:14;8.02;;;2.50;;
11490;SDS011;5802;52.832;4.758;2023-03-13T07:45:48;8.10;;;2.78;;
11490;SDS011;5802;52.832;4.758;2023-03-13T07:48:16;8.00;;;2.50;;
11490;SDS011;5802;52.832;4.758;2023-03-13T07:50:44;5.50;;;2.30;;
11490;SDS011;5802;52.832;4.758;2023-03-13T07:53:11;8.60;;;2.50;;
11490;SDS011;5802;52.832;4.758;2023-03-13T07:55:38;6.70;;;3.08;;
11490;SDS011;5802;52.832;4.758;2023-03-13T07:58:04;6.05;;;2.85;;
11490;SDS011;5802;52.832;4.758;2023-03-13T08:00:31;6.88;;;2.50;;
11490;SDS011;5802;52.832;4.758;2023-03-13T08:02:58;5.22;;;2.70;;
11490;SDS011;5802;52.832;4.758;2023-03-13T08:05:24;5.97;;;2.38;;
11490;SDS011;5802;52.832;4.758;2023-03-13T08:07:52;6.60;;;2.80;;
11490;SDS011;5802;52.832;4.758;2023-03-13T08:10:19;7.85;;;3.08;;
11490;SDS011;5802;52.832;4.758;2023-03-13T08:12:46;7.97;;;2.80;;
11490;SDS011;5802;52.832;4.758;2023-03-13T08:15:12;7.97;;;2.90;;
11490;SDS011;5802;52.832;4.758;2023-03-13T08:17:39;6.07;;;2.63;;
11490;SDS011;5802;52.832;4.758;2023-03-13T08:20:06;8.30;;;2.53;;
11490;SDS011;5802;52.832;4.758;2023-03-13T08:22:34;7.15;;;2.80;;
11490;SDS011;5802;52.832;4.758;2023-03-13T08:25:03;7.10;;;2.72;;
11490;SDS011;5802;52.832;4.758;2023-03-13T08:27:30;5.65;;;2.63;;
11490;SDS011;5802;52.832;4.758;2023-03-13T08:29:57;5.07;;;2.53;;
11490;SDS011;5802;52.832;4.758;2023-03-13T08:32:24;7.65;;;2.38;;
11490;SDS011;5802;52.832;4.758;2023-03-13T08:34:50;5.78;;;2.42;;
11490;SDS011;5802;52.832;4.758;2023-03-13T08:37:17;7.63;;;2.60;;
11490;SDS011;5802;52.832;4.758;2023-03-13T08:39:44;7.78;;;2.55;;
11490;SDS011;5802;52.832;4.758;2023-03-13T08:42:13;9.15;;;3.03;;
11490;SDS011;5802;52.832;4.758;2023-03-13T08:44:40;8.57;;;2.85;;
11490;SDS011;5802;52.832;4.758;2023-03-13T08:47:07;4.88;;;2.55;;
11490;SDS011;5802;52.832;4.758;2023-03-13T08:49:34;8.75;;;3.05;;
11490;SDS011;5802;52.832;4.758;2023-03-13T08:52:00;10.77;;;2.92;;
11490;SDS011;5802;52.832;4.758;2023-03-13T08:54:29;8.57;;;2.72;;
11490;SDS011;5802;52.832;4.758;2023-03-13T08:56:56;7.38;;;3.03;;
11490;SDS011;5802;52.832;4.758;2023-03-13T08:59:25;6.50;;;2.55;;
11490;SDS011;5802;52.832;4.758;2023-03-13T09:01:52;9.02;;;2.97;;
11490;SDS011;5802;52.832;4.758;2023-03-13T09:04:18;6.90;;;2.72;;
11490;SDS011;5802;52.832;4.758;2023-03-13T09:06:45;9.50;;;3.17;;
11490;SDS011;5802;52.832;4.758;2023-03-13T09:09:12;7.63;;;2.97;;
11490;SDS011;5802;52.832;4.758;2023-03-13T09:11:40;8.50;;;2.90;;
11490;SDS011;5802;52.832;4.758;2023-03-13T09:14:07;6.38;;;3.05;;
11490;SDS011;5802;52.832;4.758;2023-03-13T09:16:36;6.25;;;2.58;;
11490;SDS011;5802;52.832;4.758;2023-03-13T09:19:03;6.63;;;3.03;;
11490;SDS011;5802;52.832;4.758;2023-03-13T09:21:31;7.82;;;2.60;;
11490;SDS011;5802;52.832;4.758;2023-03-13T09:23:59;8.13;;;2.85;;
11490;SDS011;5802;52.832;4.758;2023-03-13T09:26:26;6.13;;;3.00;;
11490;SDS011;5802;52.832;4.758;2023-03-13T09:28:53;6.22;;;2.80;;
11490;SDS011;5802;52.832;4.758;2023-03-13T09:31:21;7.10;;;2.83;;
11490;SDS011;5802;52.832;4.758;2023-03-13T09:33:50;6.93;;;2.60;;
11490;SDS011;5802;52.832;4.758;2023-03-13T09:36:18;5.95;;;2.80;;
11490;SDS011;5802;52.832;4.758;2023-03-13T09:38:45;5.43;;;2.60;;
11490;SDS011;5802;52.832;4.758;2023-03-13T09:41:23;8.45;;;3.10;;
11490;SDS011;5802;52.832;4.758;2023-03-13T09:43:52;8.55;;;3.05;;
11490;SDS011;5802;52.832;4.758;2023-03-13T09:46:26;6.65;;;2.75;;
11490;SDS011;5802;52.832;4.758;2023-03-13T09:49:04;9.70;;;3.30;;
11490;SDS011;5802;52.832;4.758;2023-03-13T09:51:37;9.40;;;2.45;;
11490;SDS011;5802;52.832;4.758;2023-03-13T09:54:07;7.40;;;2.60;;
11490;SDS011;5802;52.832;4.758;2023-03-13T09:56:39;7.95;;;3.05;;
11490;SDS011;5802;52.832;4.758;2023-03-13T09:59:12;6.80;;;2.58;;
11490;SDS011;5802;52.832;4.758;2023-03-13T10:01:42;6.07;;;2.45;;
11490;SDS011;5802;52.832;4.758;2023-03-13T10:04:14;9.25;;;2.70;;
11490;SDS011;5802;52.832;4.758;2023-03-13T10:06:52;8.75;;;2.90;;
11490;SDS011;5802;52.832;4.758;2023-03-13T10:09:19;10.32;;;3.05;;
11490;SDS011;5802;52.832;4.758;2023-03-13T10:11:51;9.23;;;2.72;;
11490;SDS011;5802;52.832;4.758;2023-03-13T10:14:26;7.40;;;3.03;;
11490;SDS011;5802;52.832;4.758;2023-03-13T10:16:58;9.50;;;3.20;;
11490;SDS011;5802;52.832;4.758;2023-03-13T10:19:35;7.40;;;2.90;;
11490;SDS011;5802;52.832;4.758;2023-03-13T10:22:16;6.72;;;2.63;;
11490;SDS011;5802;52.832;4.758;2023-03-13T10:24:46;11.32;;;3.00;;
11490;SDS011;5802;52.832;4.758;2023-03-13T10:27:18;9.32;;;3.03;;
11490;SDS011;5802;52.832;4.758;2023-03-13T10:29:45;10.88;;;2.90;;
11490;SDS011;5802;52.832;4.758;2023-03-13T10:32:12;9.88;;;2.92;;
11490;SDS011;5802;52.832;4.758;2023-03-13T10:34:46;8.93;;;2.80;;
11490;SDS011;5802;52.832;4.758;2023-03-13T10:37:19;10.95;;;2.85;;
11490;SDS011;5802;52.832;4.758;2023-03-13T10:39:47;9.55;;;2.97;;
11490;SDS011;5802;52.832;4.758;2023-03-13T10:42:17;10.57;;;3.58;;
11490;SDS011;5802;52.832;4.758;2023-03-13T10:44:48;17.35;;;4.80;;
11490;SDS011;5802;52.832;4.758;2023-03-13T10:47:15;25.17;;;6.50;;
11490;SDS011;5802;52.832;4.758;2023-03-13T10:49:47;26.10;;;6.75;;
11490;SDS011;5802;52.832;4.758;2023-03-13T10:52:29;26.98;;;7.30;;
11490;SDS011;5802;52.832;4.758;2023-03-13T10:54:59;27.92;;;6.82;;
11490;SDS011;5802;52.832;4.758;2023-03-13T10:57:28;19.48;;;6.03;;
11490;SDS011;5802;52.832;4.758;2023-03-13T10:59:55;14.02;;;5.53;;
11490;SDS011;5802;52.832;4.758;2023-03-13T11:02:24;22.35;;;5.72;;
11490;SDS011;5802;52.832;4.758;2023-03-13T11:04:54;16.88;;;4.93;;
11490;SDS011;5802;52.832;4.758;2023-03-13T11:07:28;20.58;;;6.05;;
11490;SDS011;5802;52.832;4.758;2023-03-13T11:09:58;21.40;;;6.38;;
11490;SDS011;5802;52.832;4.758;2023-03-13T11:12:26;18.92;;;6.10;;
11490;SDS011;5802;52.832;4.758;2023-03-13T11:14:57;21.70;;;6.40;;
11490;SDS011;5802;52.832;4.758;2023-03-13T11:17:27;22.33;;;6.72;;
11490;SDS011;5802;52.832;4.758;2023-03-13T11:20:01;14.05;;;6.13;;
11490;SDS011;5802;52.832;4.758;2023-03-13T11:22:37;18.08;;;6.20;;
11490;SDS011;5802;52.832;4.758;2023-03-13T11:25:16;20.08;;;5.63;;
11490;SDS011;5802;52.832;4.758;2023-03-13T11:27:48;17.17;;;6.47;;
11490;SDS011;5802;52.832;4.758;2023-03-13T11:30:31;14.10;;;5.45;;
11490;SDS011;5802;52.832;4.758;2023-03-13T11:33:11;14.98;;;5.15;;
11490;SDS011;5802;52.832;4.758;2023-03-13T11:35:52;18.50;;;5.72;;
11490;SDS011;5802;52.832;4.758;2023-03-13T11:38:26;11.82;;;4.63;;
11490;SDS011;5802;52.832;4.758;2023-03-13T11:40:58;15.52;;;5.35;;
11490;SDS011;5802;52.832;4.758;2023-03-13T11:43:39;17.63;;;4.95;;
11490;SDS011;5802;52.832;4.758;2023-03-13T11:46:19;13.25;;;4.78;;
11490;SDS011;5802;52.832;4.758;2023-03-13T11:49:02;11.95;;;4.57;;
11490;SDS011;5802;52.832;4.758;2023-03-13T11:51:53;12.60;;;4.65;;
11490;SDS011;5802;52.832;4.758;2023-03-13T11:54:40;10.43;;;4.18;;
11490;SDS011;5802;52.832;4.758;2023-03-13T11:57:23;12.13;;;4.32;;
11490;SDS011;5802;52.832;4.758;2023-03-13T12:00:00;14.18;;;4.07;;
11490;SDS011;5802;52.832;4.758;2023-03-13T12:02:40;15.05;;;4.40;;
11490;SDS011;5802;52.832;4.758;2023-03-13T12:05:14;11.75;;;4.13;;
11490;SDS011;5802;52.832;4.758;2023-03-13T12:07:46;14.50;;;4.40;;
11490;SDS011;5802;52.832;4.758;2023-03-13T12:10:21;10.65;;;3.53;;
11490;SDS011;5802;52.832;4.758;2023-03-13T12:12:55;18.08;;;4.60;;
11490;SDS011;5802;52.832;4.758;2023-03-13T12:15:28;10.85;;;3.70;;
11490;SDS011;5802;52.832;4.758;2023-03-13T12:17:59;12.43;;;4.22;;
11490;SDS011;5802;52.832;4.758;2023-03-13T12:20:31;12.57;;;4.47;;
11490;SDS011;5802;52.832;4.758;2023-03-13T12:23:07;10.75;;;3.50;;
11490;SDS011;5802;52.832;4.758;2023-03-13T12:25:46;12.55;;;4.05;;
11490;SDS011;5802;52.832;4.758;2023-03-13T12:28:20;8.95;;;3.42;;
11490;SDS011;5802;52.832;4.758;2023-03-13T12:30:55;16.13;;;4.15;;
11490;SDS011;5802;52.832;4.758;2023-03-13T12:33:28;10.98;;;3.47;;
11490;SDS011;5802;52.832;4.758;2023-03-13T12:36:00;9.32;;;4.07;;
11490;SDS011;5802;52.832;4.758;2023-03-13T12:38:33;14.85;;;4.03;;
11490;SDS011;5802;52.832;4.758;2023-03-13T12:41:07;12.68;;;3.55;;
11490;SDS011;5802;52.832;4.758;2023-03-13T12:43:45;10.32;;;3.65;;
11490;SDS011;5802;52.832;4.758;2023-03-13T12:46:24;10.73;;;3.58;;
11490;SDS011;5802;52.832;4.758;2023-03-13T12:49:05;10.48;;;3.78;;
11490;SDS011;5802;52.832;4.758;2023-03-13T12:51:52;9.63;;;3.30;;
11490;SDS011;5802;52.832;4.758;2023-03-13T12:54:34;11.70;;;3.88;;
11490;SDS011;5802;52.832;4.758;2023-03-13T12:57:20;11.32;;;3.75;;
11490;SDS011;5802;52.832;4.758;2023-03-13T13:00:10;8.55;;;3.40;;
11490;SDS011;5802;52.832;4.758;2023-03-13T13:02:41;13.20;;;3.95;;
11490;SDS011;5802;52.832;4.758;2023-03-13T13:05:15;12.00;;;3.65;;
11490;SDS011;5802;52.832;4.758;2023-03-13T13:07:44;12.02;;;4.00;;
11490;SDS011;5802;52.832;4.758;2023-03-13T13:10:21;11.15;;;4.13;;
11490;SDS011;5802;52.832;4.758;2023-03-13T13:15:58;12.60;;;3.72;;
11490;SDS011;5802;52.832;4.758;2023-03-13T13:18:27;14.50;;;3.95;;
11490;SDS011;5802;52.832;4.758;2023-03-13T13:21:18;14.10;;;4.72;;
11490;SDS011;5802;52.832;4.758;2023-03-13T13:23:46;12.18;;;3.90;;
11490;SDS011;5802;52.832;4.758;2023-03-13T13:32:30;11.50;;;4.20;;
11490;SDS011;5802;52.832;4.758;2023-03-13T13:35:03;11.05;;;3.53;;
11490;SDS011;5802;52.832;4.758;2023-03-13T13:37:31;12.20;;;3.92;;
11490;SDS011;5802;52.832;4.758;2023-03-13T13:42:50;14.73;;;4.30;;
11490;SDS011;5802;52.832;4.758;2023-03-13T13:45:22;11.52;;;3.92;;
11490;SDS011;5802;52.832;4.758;2023-03-13T13:48:14;14.85;;;3.92;;
11490;SDS011;5802;52.832;4.758;2023-03-13T13:51:18;12.50;;;3.45;;
11490;SDS011;5802;52.832;4.758;2023-03-13T13:53:48;10.48;;;3.35;;
11490;SDS011;5802;52.832;4.758;2023-03-13T13:56:36;13.20;;;4.30;;
11490;SDS011;5802;52.832;4.758;2023-03-13T13:59:24;12.55;;;3.50;;
11490;SDS011;5802;52.832;4.758;2023-03-13T14:02:10;14.00;;;4.00;;
11490;SDS011;5802;52.832;4.758;2023-03-13T14:04:41;14.38;;;4.35;;
11490;SDS011;5802;52.832;4.758;2023-03-13T14:07:11;13.77;;;4.03;;
11490;SDS011;5802;52.832;4.758;2023-03-13T14:09:46;9.88;;;3.60;;
11490;SDS011;5802;52.832;4.758;2023-03-13T14:12:24;16.83;;;4.50;;
11490;SDS011;5802;52.832;4.758;2023-03-13T14:15:06;13.35;;;4.00;;
11490;SDS011;5802;52.832;4.758;2023-03-13T14:17:41;17.25;;;4.65;;
11490;SDS011;5802;52.832;4.758;2023-03-13T14:20:21;10.73;;;4.32;;
11490;SDS011;5802;52.832;4.758;2023-03-13T14:22:52;11.65;;;3.58;;
11490;SDS011;5802;52.832;4.758;2023-03-13T14:25:20;11.05;;;4.30;;
11490;SDS011;5802;52.832;4.758;2023-03-13T14:27:48;12.80;;;4.32;;
11490;SDS011;5802;52.832;4.758;2023-03-13T14:30:17;9.27;;;3.38;;
11490;SDS011;5802;52.832;4.758;2023-03-13T14:32:45;11.82;;;4.00;;
11490;SDS011;5802;52.832;4.758;2023-03-13T14:35:13;12.82;;;3.70;;
11490;SDS011;5802;52.832;4.758;2023-03-13T14:37:44;13.30;;;3.90;;
11490;SDS011;5802;52.832;4.758;2023-03-13T14:40:18;11.48;;;3.90;;
11490;SDS011;5802;52.832;4.758;2023-03-13T14:42:51;14.57;;;4.43;;
11490;SDS011;5802;52.832;4.758;2023-03-13T14:45:25;10.07;;;3.65;;
11490;SDS011;5802;52.832;4.758;2023-03-13T14:47:54;10.75;;;4.03;;
11490;SDS011;5802;52.832;4.758;2023-03-13T14:50:27;14.52;;;3.92;;
11490;SDS011;5802;52.832;4.758;2023-03-13T14:52:54;14.48;;;4.28;;
11490;SDS011;5802;52.832;4.758;2023-03-13T14:55:27;12.40;;;4.00;;
11490;SDS011;5802;52.832;4.758;2023-03-13T14:57:57;14.20;;;4.60;;
11490;SDS011;5802;52.832;4.758;2023-03-13T15:03:18;15.10;;;4.32;;
11490;SDS011;5802;52.832;4.758;2023-03-13T15:05:47;14.65;;;4.43;;
11490;SDS011;5802;52.832;4.758;2023-03-13T15:08:17;13.20;;;4.15;;
11490;SDS011;5802;52.832;4.758;2023-03-13T15:10:46;11.25;;;4.05;;
11490;SDS011;5802;52.832;4.758;2023-03-13T15:13:14;14.68;;;4.40;;
11490;SDS011;5802;52.832;4.758;2023-03-13T15:15:49;12.10;;;4.15;;
11490;SDS011;5802;52.832;4.758;2023-03-13T15:18:17;11.40;;;4.10;;
11490;SDS011;5802;52.832;4.758;2023-03-13T15:20:49;11.43;;;4.38;;
11490;SDS011;5802;52.832;4.758;2023-03-13T15:23:16;10.15;;;3.92;;
11490;SDS011;5802;52.832;4.758;2023-03-13T15:25:44;12.30;;;4.10;;
11490;SDS011;5802;52.832;4.758;2023-03-13T15:28:12;9.95;;;3.92;;
11490;SDS011;5802;52.832;4.758;2023-03-13T15:30:40;16.15;;;4.38;;